Accueil
METAR-TAF:

METAR-TAF

Aéroports :

Shawbury, Angleterre

latitude: 52-48N, longitude: 002-40W, altitude: 76 m

Observation

Le bulletin a été fait il y a 46 minutes, à 18:50 UTC
Vent 10 kt de sud/sud-est
Température 2°C
Humidité 87%
Pression 1004 hPa
Visibilité 10 km ou plus

METAR: EGOS 121850Z AUTO 16010KT 9999 FEW035/// BKN050/// 02/00 Q1004

Heure: 19:36 (19:36 UTC)

Prévision

Le bulletin a été fait il y a 5 heures et 52 minutes, à 13:44 UTC
Prévision valable du 12 à 15 UTC au 12 à 18 UTC
Vent 3 kt de direction variable
Visibilité 10 km ou plus
Quelques nuages à une hauteur de 2800 ft

TAF: EGOS 121344Z 1215/1218 VRB03KT 9999 FEW028

Observations et prévisions météorologiques de plus de 4000 aéroports (messages METAR et TAF).

Les stations disponibles sont représentées par des disques jaunes et rouges sur la carte.

Passer la souris dessus pour voir le nom de la station.

Cliquer dessus pour voir les observations et prévisions météorologiques.

Pour changer de carte: cliquez sur les boutons verts avec une croix noire pour zoomer, sur le bouton vert avec un tiret pour effectuer un zoom arrière, ou sur les flèches vertes pour les cartes adjacentes.


METAR-TAF: